Time;durP1;ratioP1;P1;durP2;ratioP2;P2;SDS_P1;SDS_P2;PMS_P1;PMS_P2;Temp;Humidity;BMP_temperature;BMP_pressure;BME280_temperature;BME280_humidity;BME280_pressure;Samples;Min_cycle;Max_cycle;Signal;HPM_P1;HPM_P2
2022/01/17 00:00:23;;;;;;;16.17;6.18;;;27.80;99.90;;;;;;5070171;28;20087;-70
2022/01/17 00:02:53;;;;;;;11.02;5.47;;;27.80;99.90;;;;;;5070584;28;20028;-70
2022/01/17 00:05:20;;;;;;;10.82;5.85;;;27.80;99.90;;;;;;5067964;28;20016;-69
2022/01/17 00:07:48;;;;;;;10.90;6.00;;;28.00;99.90;;;;;;5070839;28;20114;-69
2022/01/17 00:10:15;;;;;;;11.23;7.03;;;28.10;99.90;;;;;;5070377;28;20013;-69
2022/01/17 00:12:46;;;;;;;12.13;5.63;;;28.20;99.90;;;;;;5069994;28;20025;-69
2022/01/17 00:15:29;;;;;;;12.65;5.90;;;28.30;99.90;;;;;;5070514;28;20024;-69
2022/01/17 00:18:23;;;;;;;7.55;5.53;;;28.30;99.90;;;;;;5069631;28;20030;-68
2022/01/17 00:20:46;;;;;;;12.70;6.43;;;28.40;99.90;;;;;;5067746;28;20405;-69
2022/01/17 00:23:17;;;;;;;11.43;5.43;;;28.50;99.90;;;;;;5069365;28;20040;-69
2022/01/17 00:25:44;;;;;;;8.23;5.32;;;28.60;99.90;;;;;;5070933;28;20488;-69
2022/01/17 00:28:20;;;;;;;11.57;5.68;;;28.60;99.90;;;;;;5071478;28;20104;-70
2022/01/17 00:30:48;;;;;;;18.40;6.65;;;28.80;99.90;;;;;;5071315;28;20046;-68
2022/01/17 00:33:15;;;;;;;12.82;6.18;;;28.90;99.90;;;;;;5071247;28;20024;-70
2022/01/17 00:35:43;;;;;;;11.85;5.82;;;28.90;99.90;;;;;;5071035;28;20600;-68
2022/01/17 00:38:12;;;;;;;8.45;5.68;;;29.00;99.90;;;;;;5069529;28;20394;-69
2022/01/17 00:40:43;;;;;;;12.05;6.07;;;29.00;99.90;;;;;;5067619;28;20031;-69
2022/01/17 00:43:11;;;;;;;10.02;5.55;;;29.20;99.90;;;;;;5069903;28;20082;-68
2022/01/17 00:45:40;;;;;;;9.32;6.28;;;29.20;99.90;;;;;;5067361;28;20021;-70
2022/01/17 00:48:08;;;;;;;10.77;6.18;;;29.40;99.90;;;;;;5069951;28;20052;-70
2022/01/17 00:50:39;;;;;;;13.63;6.25;;;29.50;99.50;;;;;;5069354;28;20078;-68
2022/01/17 00:53:07;;;;;;;8.90;5.72;;;29.50;99.60;;;;;;5070618;28;20108;-70
2022/01/17 00:55:38;;;;;;;11.18;5.90;;;29.60;99.70;;;;;;5071066;28;20029;-67
2022/01/17 00:58:06;;;;;;;11.95;6.60;;;29.70;99.50;;;;;;5070227;28;20116;-69
2022/01/17 01:00:34;;;;;;;11.68;6.60;;;29.80;99.90;;;;;;5068507;28;20430;-68
2022/01/17 01:03:01;;;;;;;11.90;5.95;;;30.00;99.80;;;;;;5069636;28;20037;-69
2022/01/17 01:05:29;;;;;;;12.55;6.15;;;30.10;99.60;;;;;;5068296;28;20021;-71
2022/01/17 01:07:57;;;;;;;11.90;7.00;;;30.20;99.30;;;;;;5069818;28;20063;-71
2022/01/17 01:10:25;;;;;;;15.23;6.95;;;30.40;98.90;;;;;;5070017;28;20556;-69
2022/01/17 01:12:52;;;;;;;15.40;6.13;;;30.60;99.10;;;;;;5069717;28;20025;-70
2022/01/17 01:15:47;;;;;;;18.88;7.47;;;30.60;98.30;;;;;;5072473;28;20027;-70
2022/01/17 01:18:19;;;;;;;14.95;7.35;;;30.70;98.50;;;;;;5079655;28;20028;-70
2022/01/17 01:28:47;;;;;;;14.10;6.57;;;31.70;97.70;;;;;;5093478;28;20039;-70
2022/01/17 01:31:21;;;;;;;15.68;5.80;;;31.80;97.80;;;;;;5094678;28;20048;-69
2022/01/17 01:33:53;;;;;;;15.77;6.40;;;32.00;96.90;;;;;;5094446;28;20036;-69
2022/01/17 01:36:27;;;;;;;15.68;6.38;;;31.90;97.00;;;;;;5094470;28;20028;-69
2022/01/17 01:38:54;;;;;;;13.15;6.95;;;32.10;97.60;;;;;;5093516;28;20020;-69
2022/01/17 01:41:22;;;;;;;18.67;6.97;;;32.30;96.50;;;;;;5094385;28;20020;-69
2022/01/17 01:43:49;;;;;;;13.80;6.40;;;32.40;96.10;;;;;;5094635;28;20388;-69
2022/01/17 01:46:19;;;;;;;13.35;7.03;;;32.30;96.00;;;;;;5095211;28;20456;-70
2022/01/17 01:48:47;;;;;;;13.23;6.72;;;32.00;96.00;;;;;;5094976;28;20051;-69
2022/01/17 01:51:16;;;;;;;17.20;6.85;;;32.20;96.30;;;;;;5094641;28;20028;-70
2022/01/17 01:53:43;;;;;;;18.40;6.85;;;32.30;96.40;;;;;;5092616;28;20472;-69
2022/01/17 01:56:11;;;;;;;16.92;6.80;;;32.50;96.30;;;;;;5094768;28;20028;-69
2022/01/17 01:58:40;;;;;;;17.50;6.97;;;32.40;95.40;;;;;;5093100;28;20024;-67
2022/01/17 02:01:09;;;;;;;20.67;7.00;;;32.60;95.90;;;;;;5093991;28;20034;-70
2022/01/17 02:03:36;;;;;;;14.25;6.40;;;32.80;95.60;;;;;;5093675;28;20020;-68
2022/01/17 02:06:04;;;;;;;20.55;7.63;;;32.70;94.70;;;;;;5093888;28;20333;-68
2022/01/17 02:08:32;;;;;;;14.55;6.22;;;32.30;95.20;;;;;;5093162;28;20036;-68
2022/01/17 02:11:00;;;;;;;19.73;7.72;;;32.10;95.90;;;;;;5092549;28;20043;-69
2022/01/17 02:13:28;;;;;;;16.75;6.60;;;31.80;95.80;;;;;;5092555;28;20017;-69
2022/01/17 02:16:05;;;;;;;19.10;7.05;;;31.60;96.20;;;;;;5092256;28;20322;-68
2022/01/17 02:18:32;;;;;;;16.90;6.43;;;31.50;96.80;;;;;;5092270;28;20027;-68
2022/01/17 02:23:45;;;;;;;10.65;6.38;;;31.70;96.30;;;;;;5092364;28;20062;-70
2022/01/17 02:26:13;;;;;;;15.70;7.03;;;31.80;97.00;;;;;;5092050;28;20020;-69
2022/01/17 02:28:46;;;;;;;15.30;6.97;;;31.80;96.20;;;;;;5091641;28;20025;-70
2022/01/17 02:31:14;;;;;;;17.50;6.88;;;31.80;96.30;;;;;;5093001;28;20044;-70
2022/01/17 02:33:42;;;;;;;11.90;6.63;;;32.00;96.20;;;;;;5093509;28;20028;-72
2022/01/17 02:36:10;;;;;;;19.25;6.03;;;32.10;96.20;;;;;;5093860;28;20020;-70
2022/01/17 02:38:41;;;;;;;13.07;6.25;;;32.20;95.70;;;;;;5094094;28;20016;-70
2022/01/17 02:41:11;;;;;;;18.33;7.97;;;32.20;95.50;;;;;;5093801;28;20024;-69
2022/01/17 02:43:39;;;;;;;16.65;6.35;;;32.20;95.50;;;;;;5093724;28;20105;-69
2022/01/17 02:48:38;;;;;;;15.23;6.43;;;32.20;95.40;;;;;;5093390;28;20491;-71
2022/01/17 02:51:06;;;;;;;12.88;6.28;;;32.30;95.20;;;;;;5093521;28;20173;-70
2022/01/17 02:53:34;;;;;;;13.88;6.38;;;32.10;95.40;;;;;;5093293;28;20107;-72
2022/01/17 02:56:09;;;;;;;16.27;5.95;;;32.00;95.60;;;;;;5093042;28;20059;-71
2022/01/17 02:58:37;;;;;;;13.90;5.70;;;31.80;95.40;;;;;;5093500;28;20100;-70
2022/01/17 03:01:28;;;;;;;12.98;5.15;;;31.70;95.80;;;;;;5092923;28;20028;-71
2022/01/17 03:03:56;;;;;;;15.70;5.97;;;32.00;95.80;;;;;;5092477;28;20595;-71
2022/01/17 03:06:25;;;;;;;14.35;5.63;;;32.00;95.30;;;;;;5092845;28;20023;-70
2022/01/17 03:08:53;;;;;;;13.27;5.35;;;31.80;95.30;;;;;;5092763;28;20047;-70
2022/01/17 03:11:25;;;;;;;17.42;5.85;;;31.70;95.90;;;;;;5093092;28;20016;-69
2022/01/17 03:13:53;;;;;;;12.95;5.25;;;32.00;95.90;;;;;;5093220;28;20568;-70
2022/01/17 03:16:29;;;;;;;17.67;6.20;;;32.40;95.30;;;;;;5093099;28;20027;-73
2022/01/17 03:18:57;;;;;;;15.27;6.40;;;32.40;95.10;;;;;;5093034;28;20020;-70
2022/01/17 03:21:27;;;;;;;15.23;7.07;;;32.40;95.30;;;;;;5092400;28;20060;-71
2022/01/17 03:23:55;;;;;;;19.48;5.95;;;32.60;95.50;;;;;;5092913;28;20345;-71
2022/01/17 03:26:22;;;;;;;15.65;6.57;;;32.80;94.50;;;;;;5091178;28;20024;-71
2022/01/17 03:28:49;;;;;;;12.68;6.80;;;33.10;94.20;;;;;;5092405;28;20028;-71
2022/01/17 03:31:17;;;;;;;14.80;6.65;;;33.00;93.60;;;;;;5092432;28;20105;-70
2022/01/17 03:33:44;;;;;;;14.00;8.10;;;32.80;94.90;;;;;;5092726;28;20060;-74
2022/01/17 03:36:11;;;;;;;13.93;7.07;;;33.00;94.00;;;;;;5092803;28;20027;-71
2022/01/17 03:38:40;;;;;;;14.93;7.20;;;32.90;94.50;;;;;;5091890;28;20020;-70
2022/01/17 03:41:08;;;;;;;17.20;8.90;;;33.30;94.20;;;;;;5092055;28;20050;-71
2022/01/17 03:43:36;;;;;;;15.68;7.63;;;33.20;93.70;;;;;;5092774;28;20074;-70
2022/01/17 03:46:03;;;;;;;16.35;9.05;;;33.20;94.20;;;;;;5092426;28;20028;-69
2022/01/17 03:48:32;;;;;;;16.35;8.40;;;33.40;93.80;;;;;;5092367;28;20420;-69
2022/01/17 03:51:01;;;;;;;21.15;9.57;;;33.40;93.60;;;;;;5092326;28;20530;-71
2022/01/17 03:53:29;;;;;;;20.38;9.40;;;33.30;93.60;;;;;;5092480;28;20024;-71
2022/01/17 03:55:57;;;;;;;16.00;8.88;;;33.00;93.90;;;;;;5092156;28;20028;-71
2022/01/17 03:58:28;;;;;;;18.52;9.18;;;32.90;94.20;;;;;;5092172;28;20051;-71
2022/01/17 04:00:57;;;;;;;13.05;8.65;;;32.80;94.30;;;;;;5090683;28;20035;-71
2022/01/17 04:03:26;;;;;;;22.50;11.38;;;32.70;94.70;;;;;;5091775;28;20124;-71
2022/01/17 04:05:54;;;;;;;20.90;10.88;;;32.60;94.60;;;;;;5091928;28;20020;-71
2022/01/17 04:08:22;;;;;;;23.55;11.75;;;32.30;94.70;;;;;;5092100;28;20024;-71
2022/01/17 04:10:49;;;;;;;21.10;12.05;;;31.60;95.70;;;;;;5091975;28;21062;-69
2022/01/17 04:13:16;;;;;;;18.55;11.23;;;31.30;96.30;;;;;;5091942;28;20077;-72
2022/01/17 04:15:44;;;;;;;19.25;11.05;;;31.10;96.90;;;;;;5092406;28;20103;-71
2022/01/17 04:18:12;;;;;;;23.10;12.05;;;31.00;97.20;;;;;;5092065;28;20020;-71
2022/01/17 04:20:41;;;;;;;18.98;10.32;;;31.00;97.40;;;;;;5092302;28;20024;-71
2022/01/17 04:23:10;;;;;;;18.15;11.23;;;31.00;96.80;;;;;;5091934;28;20035;-71
2022/01/17 04:25:40;;;;;;;19.23;11.82;;;30.90;97.40;;;;;;5092101;28;20550;-73
2022/01/17 04:28:09;;;;;;;23.60;12.70;;;31.10;96.90;;;;;;5092324;28;20154;-71
2022/01/17 04:30:38;;;;;;;25.13;13.52;;;31.10;97.30;;;;;;5091553;28;20493;-72
2022/01/17 04:33:07;;;;;;;22.40;12.38;;;30.90;97.30;;;;;;5092073;28;20020;-71
2022/01/17 04:35:36;;;;;;;25.80;13.80;;;30.80;97.40;;;;;;5092059;28;20094;-71
2022/01/17 04:38:10;;;;;;;22.30;13.40;;;30.40;97.50;;;;;;5091565;28;20024;-73
2022/01/17 04:40:43;;;;;;;21.80;13.85;;;30.20;97.90;;;;;;5091566;28;20111;-71
2022/01/17 04:45:58;;;;;;;21.42;13.05;;;30.20;97.90;;;;;;5091667;28;20051;-72
2022/01/17 04:48:26;;;;;;;21.70;13.98;;;30.40;98.10;;;;;;5091341;28;20150;-70
2022/01/17 04:50:53;;;;;;;25.45;14.65;;;30.70;97.90;;;;;;5092043;28;20024;-70
2022/01/17 04:53:22;;;;;;;19.55;12.55;;;30.70;97.50;;;;;;5095689;28;20032;-69
2022/01/17 04:55:50;;;;;;;21.20;12.75;;;30.60;97.60;;;;;;5095155;28;20028;-70
2022/01/17 04:58:26;;;;;;;21.63;13.38;;;30.70;97.90;;;;;;5094635;28;20089;-69
2022/01/17 05:00:53;;;;;;;22.02;12.25;;;30.60;97.80;;;;;;5094529;28;20035;-70
2022/01/17 05:03:26;;;;;;;16.92;11.57;;;30.70;97.50;;;;;;5095664;28;20449;-71
2022/01/17 05:05:54;;;;;;;19.90;13.30;;;30.80;97.60;;;;;;5094535;28;20053;-71
2022/01/17 05:08:21;;;;;;;20.27;12.48;;;30.60;97.60;;;;;;5095627;28;20030;-71
2022/01/17 05:10:54;;;;;;;18.27;11.75;;;30.60;98.10;;;;;;5094018;28;20020;-73
2022/01/17 05:13:30;;;;;;;18.77;13.15;;;30.90;97.70;;;;;;5080908;28;20028;-72
2022/01/17 05:16:11;;;;;;;23.55;13.45;;;31.10;97.40;;;;;;5091102;28;20059;-69
2022/01/17 05:21:27;;;;;;;23.77;16.02;;;31.40;96.30;;;;;;5080321;28;20021;-68
2022/01/17 05:23:54;;;;;;;19.65;14.40;;;31.30;95.80;;;;;;5075448;28;20055;-69
2022/01/17 05:26:21;;;;;;;24.30;16.73;;;30.80;96.10;;;;;;5078792;28;20016;-72
2022/01/17 05:28:52;;;;;;;26.52;16.27;;;30.60;97.00;;;;;;5081116;28;20476;-70
2022/01/17 05:31:19;;;;;;;27.45;18.98;;;30.20;97.40;;;;;;5060281;28;20561;-71
2022/01/17 05:33:47;;;;;;;25.90;16.30;;;30.00;97.60;;;;;;5080901;28;20028;-73
2022/01/17 05:36:14;;;;;;;21.40;15.02;;;29.70;98.00;;;;;;5080214;28;20545;-71
2022/01/17 05:38:42;;;;;;;18.98;14.77;;;29.60;98.30;;;;;;5080885;28;20031;-72
2022/01/17 05:41:09;;;;;;;25.95;16.10;;;29.60;98.10;;;;;;5084138;28;20023;-72
2022/01/17 05:43:36;;;;;;;26.27;15.48;;;29.50;98.30;;;;;;5081794;28;20081;-70
2022/01/17 05:46:04;;;;;;;21.50;14.93;;;29.40;98.40;;;;;;5082954;28;20047;-70
2022/01/17 05:48:31;;;;;;;22.70;15.82;;;29.30;98.80;;;;;;5076582;28;20016;-68
2022/01/17 05:50:59;;;;;;;22.00;14.02;;;29.30;98.80;;;;;;5079821;28;20044;-68
2022/01/17 05:53:29;;;;;;;22.73;15.75;;;29.30;98.60;;;;;;5074711;28;20020;-71
2022/01/17 05:55:57;;;;;;;20.75;13.98;;;29.20;98.70;;;;;;5074625;28;20035;-70
2022/01/17 05:58:30;;;;;;;20.38;14.70;;;29.10;99.00;;;;;;5068541;28;20504;-67
2022/01/17 06:00:57;;;;;;;17.85;12.32;;;29.20;98.70;;;;;;5068461;28;20074;-69
2022/01/17 06:03:25;;;;;;;16.60;9.73;;;29.20;98.40;;;;;;5068221;28;20068;-69
2022/01/17 06:05:54;;;;;;;18.05;10.27;;;29.10;98.40;;;;;;5071000;28;20048;-70
2022/01/17 06:08:21;;;;;;;21.77;9.77;;;29.00;98.70;;;;;;5069805;28;20465;-69
2022/01/17 06:10:55;;;;;;;15.25;8.40;;;29.00;98.80;;;;;;5081681;28;20024;-71
2022/01/17 06:13:22;;;;;;;17.88;8.45;;;29.10;98.60;;;;;;5079301;28;20065;-68
2022/01/17 06:15:49;;;;;;;19.92;9.15;;;29.10;98.70;;;;;;5083266;28;20021;-69
2022/01/17 06:18:17;;;;;;;14.63;8.32;;;29.10;98.90;;;;;;5080300;28;20594;-68
2022/01/17 06:20:45;;;;;;;17.60;9.02;;;29.10;99.00;;;;;;5083598;28;20077;-70
2022/01/17 06:23:13;;;;;;;13.05;7.43;;;29.10;99.00;;;;;;5077937;28;20098;-69
2022/01/17 06:25:40;;;;;;;10.52;6.20;;;29.10;99.00;;;;;;5078976;28;20069;-69
2022/01/17 06:28:27;;;;;;;13.63;6.40;;;29.00;99.10;;;;;;5081810;28;20435;-73
2022/01/17 06:30:54;;;;;;;16.88;7.55;;;29.00;99.30;;;;;;5082494;28;20039;-67
2022/01/17 06:33:22;;;;;;;13.77;6.25;;;29.00;99.40;;;;;;5080834;28;20032;-69
2022/01/17 06:35:50;;;;;;;14.23;6.22;;;28.90;99.40;;;;;;5081128;28;20411;-70
2022/01/17 06:38:17;;;;;;;12.63;5.40;;;29.00;99.70;;;;;;5078104;28;20637;-69
2022/01/17 06:40:45;;;;;;;14.23;5.97;;;28.90;99.90;;;;;;5081133;28;20111;-70
2022/01/17 06:43:12;;;;;;;10.38;5.00;;;29.00;99.90;;;;;;5078693;28;20040;-70
2022/01/17 06:45:43;;;;;;;10.35;5.78;;;29.10;99.90;;;;;;5081000;28;20036;-71
2022/01/17 06:48:10;;;;;;;11.77;4.75;;;29.30;99.60;;;;;;5080399;28;20029;-69
2022/01/17 06:50:37;;;;;;;13.68;5.05;;;29.40;99.40;;;;;;5081296;28;20023;-69
2022/01/17 06:53:15;;;;;;;11.95;4.35;;;29.40;99.10;;;;;;5077903;28;20016;-68
2022/01/17 06:55:42;;;;;;;10.05;4.65;;;29.40;99.40;;;;;;5079137;28;20031;-70
2022/01/17 06:58:10;;;;;;;11.63;3.97;;;29.40;99.30;;;;;;5083075;28;20463;-67
2022/01/17 07:00:37;;;;;;;9.05;3.92;;;29.30;99.20;;;;;;5068110;28;20409;-70
2022/01/17 07:03:04;;;;;;;10.95;3.92;;;29.20;99.40;;;;;;5081549;28;20115;-70
2022/01/17 07:05:35;;;;;;;9.90;3.40;;;29.10;99.50;;;;;;5081460;28;20025;-70
2022/01/17 07:08:02;;;;;;;9.23;3.88;;;29.00;99.90;;;;;;5077071;28;20013;-69
2022/01/17 07:10:30;;;;;;;13.32;4.28;;;28.90;99.80;;;;;;5079006;28;20078;-74
2022/01/17 07:12:58;;;;;;;14.13;4.80;;;28.70;99.90;;;;;;5082002;28;20020;-68
2022/01/17 07:15:25;;;;;;;10.98;4.07;;;28.70;99.90;;;;;;5079804;28;20036;-67
2022/01/17 07:17:56;;;;;;;10.20;3.50;;;28.70;99.90;;;;;;5079047;28;20413;-68
2022/01/17 07:20:23;;;;;;;13.10;4.25;;;28.70;99.90;;;;;;5079913;28;20033;-70
2022/01/17 07:22:51;;;;;;;7.53;3.65;;;28.50;99.90;;;;;;5076446;28;20033;-71
2022/01/17 07:25:18;;;;;;;11.35;3.90;;;28.50;99.90;;;;;;5071870;28;20490;-70
2022/01/17 07:27:45;;;;;;;13.40;4.40;;;28.40;99.90;;;;;;5070074;28;20085;-69
2022/01/17 07:30:13;;;;;;;9.55;4.13;;;28.20;99.90;;;;;;5064155;28;20029;-69
2022/01/17 07:32:40;;;;;;;11.57;3.80;;;27.90;99.90;;;;;;5067317;28;20044;-69
2022/01/17 07:35:12;;;;;;;11.02;4.00;;;27.90;99.90;;;;;;5070170;28;20475;-71
2022/01/17 07:37:39;;;;;;;9.80;4.13;;;27.80;99.90;;;;;;5070508;28;20690;-68
2022/01/17 07:40:08;;;;;;;9.30;3.75;;;27.80;99.90;;;;;;5058768;28;20025;-68
2022/01/17 07:42:36;;;;;;;10.43;4.20;;;27.80;99.90;;;;;;5049791;28;20592;-69
2022/01/17 07:45:12;;;;;;;11.27;4.43;;;27.80;99.90;;;;;;5049759;28;20476;-70
2022/01/17 07:48:11;;;;;;;10.25;3.85;;;27.70;99.90;;;;;;5048774;28;20248;-68
2022/01/17 07:50:31;;;;;;;8.93;4.73;;;27.70;99.90;;;;;;5053156;28;20033;-69
2022/01/17 07:52:59;;;;;;;11.18;3.90;;;27.60;99.90;;;;;;5049338;28;20389;-68
2022/01/17 07:55:29;;;;;;;11.20;3.53;;;27.60;99.90;;;;;;5050019;28;20031;-72
2022/01/17 07:57:57;;;;;;;10.00;5.20;;;27.60;99.90;;;;;;5049598;28;20116;-69
2022/01/17 08:00:28;;;;;;;9.63;3.22;;;27.70;99.90;;;;;;5051605;28;20082;-70
2022/01/17 08:02:58;;;;;;;10.15;3.28;;;27.60;99.90;;;;;;5056506;28;20056;-70
2022/01/17 08:05:25;;;;;;;8.68;3.83;;;27.60;99.90;;;;;;5070192;28;20021;-68
2022/01/17 08:07:53;;;;;;;6.90;2.92;;;27.50;99.90;;;;;;5070539;28;20078;-68
2022/01/17 08:10:21;;;;;;;12.43;4.78;;;27.60;99.90;;;;;;5057604;28;20374;-71
2022/01/17 08:12:48;;;;;;;10.00;2.80;;;27.60;99.90;;;;;;5050073;28;20489;-69
2022/01/17 08:15:17;;;;;;;9.15;3.15;;;27.60;99.90;;;;;;5051687;28;20047;-68
2022/01/17 08:17:48;;;;;;;10.50;3.63;;;27.60;99.90;;;;;;5071369;28;20056;-67
2022/01/17 08:20:19;;;;;;;7.00;2.60;;;27.50;99.90;;;;;;5064946;28;20020;-68
2022/01/17 08:22:47;;;;;;;8.45;3.28;;;27.50;99.90;;;;;;5051791;28;20130;-69
2022/01/17 08:25:18;;;;;;;7.85;2.88;;;27.40;99.90;;;;;;5050447;28;20036;-74
2022/01/17 08:27:51;;;;;;;7.80;2.37;;;27.40;99.90;;;;;;5051153;28;20379;-70
2022/01/17 08:30:18;;;;;;;8.65;2.28;;;27.40;99.90;;;;;;5055093;28;20551;-69
2022/01/17 08:32:48;;;;;;;9.55;2.38;;;27.30;99.90;;;;;;5050637;28;20048;-70
2022/01/17 08:35:16;;;;;;;8.52;2.78;;;27.30;99.90;;;;;;5051221;28;20017;-69
2022/01/17 08:37:44;;;;;;;12.07;3.75;;;27.30;99.90;;;;;;5049719;28;20486;-70
2022/01/17 08:40:13;;;;;;;8.20;3.00;;;27.40;99.90;;;;;;5050311;28;20021;-74
2022/01/17 08:42:40;;;;;;;10.65;2.55;;;27.30;99.90;;;;;;5051551;28;20551;-71
2022/01/17 08:45:10;;;;;;;10.43;2.92;;;27.30;99.90;;;;;;5052316;28;20116;-71
2022/01/17 08:47:38;;;;;;;8.95;2.28;;;27.20;99.90;;;;;;5057859;28;20029;-71
2022/01/17 08:50:07;;;;;;;11.85;3.33;;;27.10;99.90;;;;;;5071799;28;20017;-71
2022/01/17 08:52:34;;;;;;;12.23;3.78;;;27.10;99.90;;;;;;5072011;28;20020;-68
2022/01/17 08:55:02;;;;;;;9.95;3.05;;;27.10;99.90;;;;;;5071037;28;20044;-72
2022/01/17 08:57:29;;;;;;;9.30;2.55;;;27.10;99.90;;;;;;5071357;28;20031;-73
2022/01/17 08:59:57;;;;;;;6.43;2.53;;;27.10;99.90;;;;;;5071607;28;20020;-72
2022/01/17 09:02:25;;;;;;;11.07;3.30;;;27.10;99.90;;;;;;5069843;28;20074;-71
2022/01/17 09:04:52;;;;;;;8.60;2.88;;;27.10;99.90;;;;;;5071091;28;20056;-71
2022/01/17 09:07:19;;;;;;;9.75;3.67;;;27.10;99.90;;;;;;5070595;28;20381;-71
2022/01/17 09:09:47;;;;;;;8.63;3.10;;;27.10;99.90;;;;;;5071396;28;20029;-73
2022/01/17 09:12:15;;;;;;;9.57;3.63;;;27.10;99.90;;;;;;5072416;28;20024;-72
2022/01/17 09:14:42;;;;;;;7.53;2.72;;;27.10;99.90;;;;;;5071613;28;20017;-72
2022/01/17 09:17:11;;;;;;;10.48;3.30;;;27.10;99.90;;;;;;5071310;28;20055;-72
2022/01/17 09:19:40;;;;;;;10.05;2.67;;;27.10;99.90;;;;;;5071227;28;20021;-72
2022/01/17 09:22:09;;;;;;;6.60;2.35;;;27.10;99.90;;;;;;5070746;28;20036;-73
2022/01/17 09:24:37;;;;;;;8.32;2.70;;;27.00;99.90;;;;;;5070902;28;20056;-70
2022/01/17 09:27:07;;;;;;;9.48;3.25;;;27.10;99.90;;;;;;5073997;28;20377;-70
2022/01/17 09:29:35;;;;;;;8.25;2.42;;;27.10;99.90;;;;;;5090620;28;20050;-70
2022/01/17 09:32:03;;;;;;;11.30;2.97;;;27.00;99.90;;;;;;5090502;28;20055;-70
2022/01/17 09:34:30;;;;;;;11.63;3.03;;;27.00;99.90;;;;;;5091130;28;20020;-71
2022/01/17 09:36:57;;;;;;;8.07;3.60;;;26.90;99.90;;;;;;5091517;28;20031;-70
2022/01/17 09:39:25;;;;;;;7.60;2.58;;;26.90;99.90;;;;;;5094941;28;20024;-71
2022/01/17 09:41:52;;;;;;;7.35;2.42;;;27.00;99.90;;;;;;5094799;28;20384;-72
2022/01/17 09:44:20;;;;;;;13.20;2.40;;;26.90;99.90;;;;;;5094852;28;20103;-70
2022/01/17 09:46:52;;;;;;;6.78;2.22;;;26.90;99.90;;;;;;5094746;28;20035;-70
2022/01/17 09:49:39;;;;;;;8.82;3.13;;;26.90;99.90;;;;;;5075795;28;20072;-71
2022/01/17 09:52:55;;;;;;;8.20;2.33;;;26.90;99.90;;;;;;5074149;28;20649;-70
2022/01/17 09:55:02;;;;;;;8.05;2.10;;;26.90;99.90;;;;;;5066891;28;20103;-71
2022/01/17 09:57:30;;;;;;;;;;;26.90;99.90;;;;;;5074493;28;20105;-70
2022/01/17 09:59:57;;;;;;;8.55;2.30;;;26.90;99.90;;;;;;5073940;28;19905;-72
2022/01/17 10:02:25;;;;;;;7.95;1.85;;;26.80;99.90;;;;;;5073971;28;20031;-71
2022/01/17 10:04:52;;;;;;;8.23;2.35;;;26.80;99.90;;;;;;5073648;28;20480;-69
2022/01/17 10:07:20;;;;;;;9.40;2.83;;;26.80;99.90;;;;;;5073243;28;20115;-72
2022/01/17 10:09:58;;;;;;;10.32;2.60;;;26.80;99.90;;;;;;5073359;28;20016;-73
2022/01/17 10:12:26;;;;;;;12.77;2.13;;;26.80;99.90;;;;;;5071327;28;20023;-72
2022/01/17 10:15:02;;;;;;;8.35;2.80;;;26.80;99.90;;;;;;5073354;28;20055;-74
2022/01/17 10:17:47;;;;;;;11.63;2.22;;;26.80;99.90;;;;;;5073533;28;20029;-72
2022/01/17 10:20:18;;;;;;;9.27;2.38;;;26.80;99.90;;;;;;5073519;28;20472;-71
2022/01/17 10:22:55;;;;;;;6.32;2.65;;;26.80;99.90;;;;;;5073806;28;20083;-72
2022/01/17 10:28:15;;;;;;;8.25;2.38;;;26.80;99.90;;;;;;5073590;28;20470;-73
2022/01/17 10:31:17;;;;;;;4.97;1.88;;;26.80;99.90;;;;;;5073212;28;20056;-73
2022/01/17 10:36:23;;;;;;;7.90;2.78;;;26.80;99.90;;;;;;5073696;28;20032;-71
2022/01/17 10:39:10;;;;;;;5.88;3.20;;;26.80;99.90;;;;;;5073236;28;20020;-70
2022/01/17 10:41:38;;;;;;;9.63;2.95;;;26.70;99.90;;;;;;5073024;28;20027;-70
2022/01/17 10:44:06;;;;;;;8.52;2.95;;;26.80;99.90;;;;;;5073330;28;20163;-69
2022/01/17 10:46:34;;;;;;;8.77;2.72;;;26.80;99.90;;;;;;5073244;28;20024;-72
2022/01/17 10:49:03;;;;;;;8.88;2.20;;;26.70;99.90;;;;;;5072074;28;20028;-72
2022/01/17 10:51:33;;;;;;;6.53;2.33;;;26.70;99.90;;;;;;5053417;28;20018;-71
2022/01/17 10:54:17;;;;;;;6.80;3.28;;;26.70;99.90;;;;;;5069575;28;20031;-70
2022/01/17 10:56:57;;;;;;;10.05;2.90;;;26.60;99.90;;;;;;5073269;28;20714;-71
2022/01/17 10:59:31;;;;;;;7.75;2.42;;;26.60;99.90;;;;;;5073457;28;20468;-73
2022/01/17 11:01:59;;;;;;;7.80;2.65;;;26.50;99.90;;;;;;5072990;28;20424;-71
2022/01/17 11:04:37;;;;;;;7.82;2.40;;;26.50;99.90;;;;;;5073151;28;20444;-71
2022/01/17 11:07:07;;;;;;;6.47;2.35;;;26.50;99.90;;;;;;5072936;28;20024;-71
2022/01/17 11:09:48;;;;;;;10.35;2.80;;;26.50;99.90;;;;;;5075103;28;20031;-71
2022/01/17 11:12:19;;;;;;;8.52;2.78;;;26.50;99.90;;;;;;5087202;28;20016;-70
2022/01/17 11:14:47;;;;;;;9.52;3.30;;;26.60;99.90;;;;;;5092766;28;20016;-72
2022/01/17 11:17:35;;;;;;;9.15;2.90;;;26.60;99.90;;;;;;5073457;28;20119;-72
2022/01/17 11:20:07;;;;;;;6.82;2.38;;;26.60;99.90;;;;;;5052637;28;20107;-72
2022/01/17 11:22:40;;;;;;;11.93;2.80;;;26.60;99.90;;;;;;5071948;28;20123;-72
2022/01/17 11:25:13;;;;;;;6.78;2.83;;;26.60;99.90;;;;;;5060855;28;20359;-71
2022/01/17 11:27:41;;;;;;;8.23;2.95;;;26.60;99.90;;;;;;5057277;28;20381;-71
2022/01/17 11:30:10;;;;;;;6.80;3.00;;;26.60;99.90;;;;;;5078558;28;20810;-70
2022/01/17 11:32:39;;;;;;;9.40;3.50;;;26.60;99.90;;;;;;5071374;28;20044;-73
2022/01/17 11:35:08;;;;;;;9.15;3.13;;;26.60;99.90;;;;;;5064535;28;20116;-71
2022/01/17 11:37:38;;;;;;;8.23;2.72;;;26.60;99.90;;;;;;5071507;28;20023;-72
2022/01/17 11:40:09;;;;;;;7.57;2.85;;;26.50;99.90;;;;;;5069948;28;20048;-70
2022/01/17 11:42:38;;;;;;;7.75;2.70;;;26.50;99.90;;;;;;5070040;28;20409;-73
2022/01/17 11:45:25;;;;;;;6.95;2.80;;;26.50;99.90;;;;;;5070515;28;20099;-71
2022/01/17 11:47:56;;;;;;;8.32;3.13;;;26.60;99.90;;;;;;5071113;28;20382;-72
2022/01/17 11:50:35;;;;;;;8.30;3.05;;;26.60;99.90;;;;;;5069980;28;20036;-71
2022/01/17 11:53:11;;;;;;;9.25;3.00;;;26.60;99.90;;;;;;5068073;28;20028;-73
2022/01/17 11:55:45;;;;;;;10.95;2.78;;;26.60;99.90;;;;;;5070147;28;20048;-74
2022/01/17 11:58:24;;;;;;;7.93;2.38;;;26.60;99.90;;;;;;5068702;28;20028;-73
2022/01/17 12:01:00;;;;;;;9.20;3.03;;;26.60;99.90;;;;;;5066305;28;20107;-72
2022/01/17 12:03:47;;;;;;;12.27;3.45;;;26.60;99.90;;;;;;5068096;28;20489;-72
2022/01/17 12:06:32;;;;;;;8.35;3.00;;;26.60;99.90;;;;;;5069180;28;20358;-71
2022/01/17 12:09:26;;;;;;;7.38;3.20;;;26.50;99.90;;;;;;5069888;28;20020;-72
2022/01/17 12:12:08;;;;;;;9.63;4.22;;;26.50;99.90;;;;;;5068477;28;20016;-72
2022/01/17 12:14:42;;;;;;;8.68;3.13;;;26.50;99.90;;;;;;5066942;28;20020;-72
2022/01/17 12:17:25;;;;;;;9.25;3.63;;;26.50;99.90;;;;;;5066558;28;20063;-71
2022/01/17 12:20:05;;;;;;;5.18;2.47;;;26.50;99.90;;;;;;5068828;28;20389;-71
2022/01/17 12:22:44;;;;;;;10.52;3.60;;;26.40;99.90;;;;;;5068743;28;20020;-72
2022/01/17 12:25:30;;;;;;;6.97;3.88;;;26.40;99.90;;;;;;5068591;28;20086;-70
2022/01/17 12:28:21;;;;;;;10.30;3.75;;;26.40;99.90;;;;;;5069036;28;20480;-71
2022/01/17 12:30:55;;;;;;;6.68;2.53;;;26.40;99.90;;;;;;5067455;28;20404;-71
2022/01/17 12:33:40;;;;;;;6.03;2.63;;;26.40;99.90;;;;;;5064953;28;20028;-70
2022/01/17 12:36:28;;;;;;;8.68;3.33;;;26.50;99.90;;;;;;5066111;28;20073;-72
2022/01/17 12:39:16;;;;;;;8.57;3.47;;;26.50;99.90;;;;;;5067627;28;20033;-73
2022/01/17 12:41:45;;;;;;;7.57;2.85;;;26.40;99.90;;;;;;5066522;28;20423;-72
2022/01/17 12:44:33;;;;;;;10.23;3.25;;;26.40;99.90;;;;;;5067156;28;20111;-71
2022/01/17 12:47:04;;;;;;;10.68;3.50;;;26.40;99.90;;;;;;5065356;28;20013;-71
2022/01/17 12:49:32;;;;;;;8.63;3.10;;;26.40;99.90;;;;;;5068096;28;20036;-72
2022/01/17 12:52:00;;;;;;;11.57;3.97;;;26.30;99.90;;;;;;5066737;28;20024;-71
2022/01/17 12:54:30;;;;;;;8.73;3.67;;;26.30;99.90;;;;;;5069400;28;20107;-71
2022/01/17 12:57:01;;;;;;;10.38;4.45;;;26.30;99.90;;;;;;5068432;28;20021;-72
2022/01/17 12:59:29;;;;;;;9.65;4.22;;;26.30;99.90;;;;;;5069847;28;20013;-72
2022/01/17 13:02:00;;;;;;;10.90;3.67;;;26.30;99.90;;;;;;5068770;28;20085;-73
2022/01/17 13:04:32;;;;;;;8.40;3.47;;;26.30;99.90;;;;;;5067450;28;20056;-71
2022/01/17 13:07:01;;;;;;;10.77;3.50;;;26.30;99.90;;;;;;5069937;28;20261;-72
2022/01/17 13:09:30;;;;;;;11.60;3.80;;;26.30;99.90;;;;;;5069697;28;20024;-70
2022/01/17 13:11:57;;;;;;;8.55;3.47;;;26.30;99.90;;;;;;5070661;28;20055;-72
2022/01/17 13:14:25;;;;;;;10.10;3.05;;;26.20;99.90;;;;;;5074188;28;20051;-73
2022/01/17 13:16:54;;;;;;;7.47;2.92;;;26.20;99.90;;;;;;5072797;28;20020;-71
2022/01/17 13:19:22;;;;;;;8.60;3.38;;;26.30;99.90;;;;;;5070365;28;20013;-71